createdAt,value
2023-03-16T00:00:11.790Z,4.27
2023-03-16T00:02:38.337Z,4.47
2023-03-16T00:05:05.265Z,3.80
2023-03-16T00:07:31.864Z,4.27
2023-03-16T00:09:58.413Z,4.33
2023-03-16T00:12:26.344Z,3.70
2023-03-16T00:14:54.270Z,3.47
2023-03-16T00:17:21.148Z,3.83
2023-03-16T00:19:48.994Z,3.97
2023-03-16T00:22:16.311Z,3.87
2023-03-16T00:24:43.982Z,3.30
2023-03-16T00:27:14.891Z,3.47
2023-03-16T00:29:55.930Z,3.57
2023-03-16T00:32:27.489Z,3.37
2023-03-16T00:34:54.261Z,4.10
2023-03-16T00:37:23.571Z,4.03
2023-03-16T00:39:51.502Z,4.00
2023-03-16T00:42:18.919Z,4.10
2023-03-16T00:44:45.569Z,4.03
2023-03-16T00:47:15.587Z,3.93
2023-03-16T00:49:43.542Z,3.83
2023-03-16T00:52:14.934Z,3.77
2023-03-16T00:54:45.767Z,3.77
2023-03-16T00:57:13.816Z,3.43
2023-03-16T00:59:40.888Z,3.97
2023-03-16T01:02:08.434Z,3.90
2023-03-16T01:04:36.080Z,4.40
2023-03-16T01:07:03.618Z,3.63
2023-03-16T01:09:30.329Z,3.90
2023-03-16T01:11:57.300Z,4.43
2023-03-16T01:14:24.421Z,4.07
2023-03-16T01:16:52.231Z,4.33
2023-03-16T01:19:18.904Z,4.10
2023-03-16T01:21:45.442Z,4.30
2023-03-16T01:24:11.931Z,3.90
2023-03-16T01:26:38.503Z,3.53
2023-03-16T01:29:05.023Z,3.73
2023-03-16T01:31:31.990Z,3.90
2023-03-16T01:33:58.587Z,3.37
2023-03-16T01:36:25.193Z,3.70
2023-03-16T01:38:51.816Z,3.30
2023-03-16T01:41:18.544Z,3.10
2023-03-16T01:43:45.064Z,3.33
2023-03-16T01:46:19.817Z,3.33
2023-03-16T01:48:52.492Z,3.80
2023-03-16T01:51:37.931Z,3.60
2023-03-16T01:54:24.959Z,3.10
2023-03-16T01:57:01.245Z,3.30
2023-03-16T01:59:29.729Z,3.47
2023-03-16T02:01:56.876Z,3.53
2023-03-16T02:04:58.956Z,3.63
2023-03-16T02:07:26.598Z,3.00
2023-03-16T02:09:55.984Z,3.40
2023-03-16T02:12:22.600Z,2.77
2023-03-16T02:14:50.320Z,3.47
2023-03-16T02:17:18.563Z,3.00
2023-03-16T02:20:00.611Z,3.27
2023-03-16T02:22:27.736Z,3.83
2023-03-16T02:24:54.405Z,3.37
2023-03-16T02:27:30.897Z,3.43
2023-03-16T02:30:01.365Z,3.23
2023-03-16T02:32:29.519Z,3.30
2023-03-16T02:34:56.901Z,3.13
2023-03-16T02:37:23.540Z,4.03
2023-03-16T02:39:50.033Z,3.47
2023-03-16T02:42:18.326Z,3.50
2023-03-16T02:44:47.410Z,2.90
2023-03-16T02:47:19.464Z,3.53
2023-03-16T02:49:46.140Z,3.77
2023-03-16T02:52:12.702Z,4.07
2023-03-16T02:54:39.318Z,3.10
2023-03-16T02:57:05.917Z,3.50
2023-03-16T02:59:32.445Z,3.07
2023-03-16T03:01:58.989Z,3.23
2023-03-16T03:04:25.606Z,3.70
2023-03-16T03:06:52.107Z,3.73
2023-03-16T03:09:18.963Z,3.10
2023-03-16T03:11:46.877Z,2.80
2023-03-16T03:14:16.809Z,2.83
2023-03-16T03:16:46.891Z,2.77
2023-03-16T03:19:13.897Z,2.83
2023-03-16T03:21:40.977Z,3.00
2023-03-16T03:24:08.188Z,2.70
2023-03-16T03:26:34.840Z,2.87
2023-03-16T03:29:01.474Z,2.90
2023-03-16T03:31:28.068Z,2.90
2023-03-16T03:33:54.753Z,3.20
2023-03-16T03:36:22.303Z,3.00
2023-03-16T03:38:49.816Z,2.67
2023-03-16T03:41:16.547Z,2.93
2023-03-16T03:43:44.394Z,3.00
2023-03-16T03:46:11.130Z,3.30
2023-03-16T03:48:37.802Z,2.90
2023-03-16T03:51:05.675Z,2.67
2023-03-16T03:53:32.554Z,2.70
2023-03-16T03:55:59.254Z,3.00
2023-03-16T03:58:25.758Z,2.90
2023-03-16T04:00:52.338Z,2.50
2023-03-16T04:03:18.985Z,3.20
2023-03-16T04:05:45.570Z,2.87
2023-03-16T04:08:12.130Z,2.77
2023-03-16T04:10:38.671Z,2.70
2023-03-16T04:13:05.339Z,3.00
2023-03-16T04:15:33.084Z,2.87
2023-03-16T04:18:02.016Z,2.90
2023-03-16T04:20:29.985Z,3.40
2023-03-16T04:23:00.397Z,3.47
2023-03-16T04:25:27.588Z,2.90
2023-03-16T04:27:54.455Z,2.73
2023-03-16T04:30:21.009Z,2.63
2023-03-16T04:32:47.613Z,2.87
2023-03-16T04:35:15.741Z,2.70
2023-03-16T04:37:42.452Z,2.47
2023-03-16T04:40:15.704Z,3.40
2023-03-16T04:42:42.660Z,2.80
2023-03-16T04:45:09.410Z,3.23
2023-03-16T04:47:37.790Z,3.57
2023-03-16T04:50:04.760Z,2.90
2023-03-16T04:52:31.802Z,2.97
2023-03-16T04:54:58.408Z,2.97
2023-03-16T04:57:24.899Z,2.93
2023-03-16T04:59:51.486Z,3.00
2023-03-16T05:02:20.104Z,2.80
2023-03-16T05:04:47.084Z,3.23
2023-03-16T05:07:13.782Z,3.03
2023-03-16T05:09:40.599Z,3.00
2023-03-16T05:12:07.444Z,3.30
2023-03-16T05:14:36.109Z,2.97
2023-03-16T05:17:06.317Z,2.70
2023-03-16T05:19:32.879Z,2.90
2023-03-16T05:21:59.527Z,2.90
2023-03-16T05:24:26.159Z,3.17
2023-03-16T05:26:52.754Z,2.80
2023-03-16T05:29:19.389Z,3.73
2023-03-16T05:31:47.812Z,2.93
2023-03-16T05:34:14.863Z,3.10
2023-03-16T05:36:41.704Z,3.23
2023-03-16T05:39:08.767Z,2.93
2023-03-16T05:41:35.336Z,3.23
2023-03-16T05:44:02.036Z,3.03
2023-03-16T05:46:28.742Z,3.07
2023-03-16T05:48:55.305Z,3.30
2023-03-16T05:51:21.822Z,3.10
2023-03-16T05:53:48.786Z,3.27
2023-03-16T05:56:15.290Z,2.70
2023-03-16T05:58:42.356Z,3.07
2023-03-16T06:01:09.690Z,3.10
2023-03-16T06:03:36.781Z,3.43
2023-03-16T06:06:03.640Z,3.00
2023-03-16T06:08:30.267Z,2.90
2023-03-16T06:10:56.812Z,3.20
2023-03-16T06:13:23.345Z,2.80
2023-03-16T06:15:49.991Z,3.60
2023-03-16T06:18:16.645Z,2.87
2023-03-16T06:20:43.730Z,2.93
2023-03-16T06:23:10.356Z,3.37
2023-03-16T06:25:39.464Z,2.90
2023-03-16T06:28:07.320Z,3.43
2023-03-16T06:30:33.882Z,3.20
2023-03-16T06:33:02.287Z,3.30
2023-03-16T06:35:28.995Z,2.77
2023-03-16T06:37:55.505Z,3.30
2023-03-16T06:40:22.270Z,3.07
2023-03-16T06:42:49.647Z,3.23
2023-03-16T06:45:17.529Z,3.27
2023-03-16T06:47:44.226Z,3.30
2023-03-16T06:50:12.048Z,3.07
2023-03-16T06:52:38.880Z,3.10
2023-03-16T06:55:05.950Z,2.50
2023-03-16T06:57:32.434Z,3.00
2023-03-16T06:59:59.067Z,3.00
2023-03-16T07:02:25.589Z,3.03
2023-03-16T07:04:52.676Z,3.20
2023-03-16T07:07:19.462Z,3.10
2023-03-16T07:09:46.279Z,2.80
2023-03-16T07:12:13.898Z,3.23
2023-03-16T07:14:42.183Z,3.27
2023-03-16T07:17:08.781Z,3.47
2023-03-16T07:19:35.415Z,3.43
2023-03-16T07:22:02.954Z,3.00
2023-03-16T07:24:29.959Z,3.57
2023-03-16T07:26:56.563Z,2.73
2023-03-16T07:29:23.142Z,3.03
2023-03-16T07:31:49.961Z,3.07
2023-03-16T07:34:16.490Z,2.83
2023-03-16T07:36:42.988Z,2.80
2023-03-16T07:39:09.983Z,3.17
2023-03-16T07:41:36.605Z,3.10
2023-03-16T07:44:04.102Z,3.13
2023-03-16T07:46:32.836Z,2.70
2023-03-16T07:48:59.562Z,2.73
2023-03-16T07:51:26.092Z,3.60
2023-03-16T07:53:52.635Z,2.70
2023-03-16T07:56:19.249Z,2.40
2023-03-16T07:58:45.845Z,2.40
2023-03-16T08:01:12.692Z,2.67
2023-03-16T08:03:39.670Z,2.50
2023-03-16T08:06:06.486Z,2.60
2023-03-16T08:08:33.061Z,2.47
2023-03-16T08:10:59.919Z,2.43
2023-03-16T08:13:27.306Z,2.13
2023-03-16T08:15:58.825Z,2.60
2023-03-16T08:18:26.696Z,2.40
2023-03-16T08:20:53.371Z,2.23
2023-03-16T08:23:20.033Z,2.70
2023-03-16T08:25:48.421Z,2.03
2023-03-16T08:28:16.944Z,2.23
2023-03-16T08:30:48.595Z,2.50
2023-03-16T08:33:18.334Z,2.00
2023-03-16T08:35:44.939Z,2.63
2023-03-16T08:38:11.728Z,2.10
2023-03-16T08:40:38.369Z,2.00
2023-03-16T08:43:04.976Z,2.60
2023-03-16T08:45:31.659Z,2.03
2023-03-16T08:47:58.794Z,2.10
2023-03-16T08:50:25.488Z,1.80
2023-03-16T08:52:52.451Z,2.30
2023-03-16T08:55:19.054Z,2.10
2023-03-16T08:57:46.682Z,2.50
2023-03-16T09:00:14.574Z,2.17
2023-03-16T09:02:41.778Z,2.20
2023-03-16T09:05:09.599Z,2.00
2023-03-16T09:07:36.854Z,2.43
2023-03-16T09:10:06.065Z,2.10
2023-03-16T09:12:36.231Z,2.40
2023-03-16T09:15:04.194Z,1.80
2023-03-16T09:17:31.675Z,2.10
2023-03-16T09:20:11.519Z,2.00
2023-03-16T09:22:46.075Z,2.23
2023-03-16T09:25:12.848Z,2.20
2023-03-16T09:27:39.442Z,2.00
2023-03-16T09:30:07.964Z,2.00
2023-03-16T09:32:35.239Z,2.20
2023-03-16T09:35:02.442Z,1.93
2023-03-16T09:37:35.340Z,1.80
2023-03-16T09:40:24.867Z,1.90
2023-03-16T09:42:57.654Z,2.10
2023-03-16T09:45:32.407Z,2.03
2023-03-16T09:48:01.190Z,1.97
2023-03-16T09:50:38.156Z,1.90
2023-03-16T09:53:12.097Z,1.97
2023-03-16T09:55:39.612Z,1.90
2023-03-16T09:58:12.378Z,2.03
2023-03-16T10:00:42.213Z,2.30
2023-03-16T10:03:18.730Z,2.30
2023-03-16T10:05:47.031Z,1.90
2023-03-16T10:08:24.734Z,1.90
2023-03-16T10:10:51.789Z,1.77
2023-03-16T10:13:30.968Z,1.80
2023-03-16T10:15:59.658Z,2.33
2023-03-16T10:18:33.141Z,1.67
2023-03-16T10:21:00.138Z,1.90
2023-03-16T10:23:29.846Z,2.00
2023-03-16T10:25:56.768Z,1.77
2023-03-16T10:28:28.319Z,1.80
2023-03-16T10:30:56.949Z,2.00
2023-03-16T10:33:28.932Z,1.90
2023-03-16T10:36:16.291Z,1.90
2023-03-16T10:38:58.153Z,2.00
2023-03-16T10:41:25.826Z,2.10
2023-03-16T10:43:55.614Z,2.37
2023-03-16T10:46:23.737Z,2.03
2023-03-16T10:49:00.365Z,1.87
2023-03-16T10:51:37.442Z,2.20
2023-03-16T10:54:11.031Z,2.00
2023-03-16T10:56:37.642Z,1.80
2023-03-16T10:59:25.792Z,1.80
2023-03-16T11:01:52.382Z,1.77
2023-03-16T11:04:19.770Z,1.87
2023-03-16T11:06:56.628Z,2.10
2023-03-16T11:09:32.070Z,2.10
2023-03-16T11:11:59.210Z,2.13
2023-03-16T11:14:28.366Z,2.27
2023-03-16T11:17:17.789Z,2.10
2023-03-16T11:19:55.887Z,2.13
2023-03-16T11:22:22.530Z,2.53
2023-03-16T11:25:15.740Z,2.13
2023-03-16T11:28:00.650Z,2.13
2023-03-16T11:30:46.287Z,2.50
2023-03-16T11:33:14.199Z,3.07
2023-03-16T11:35:58.539Z,2.53
2023-03-16T11:38:36.329Z,2.40
2023-03-16T11:41:10.662Z,2.67
2023-03-16T11:43:57.200Z,2.67
2023-03-16T11:46:45.833Z,2.20
2023-03-16T11:49:36.229Z,2.77
2023-03-16T11:52:03.655Z,2.40
2023-03-16T11:55:06.007Z,1.90
2023-03-16T11:57:38.745Z,2.23
2023-03-16T12:00:08.314Z,2.13
2023-03-16T12:02:47.600Z,2.13
2023-03-16T12:05:23.357Z,1.97
2023-03-16T12:08:04.425Z,2.27
2023-03-16T12:10:43.835Z,2.20
2023-03-16T12:13:20.104Z,2.27
2023-03-16T12:15:53.528Z,2.00
2023-03-16T12:18:30.525Z,2.13
2023-03-16T12:21:01.934Z,2.17
2023-03-16T12:23:47.456Z,2.43
2023-03-16T12:26:14.839Z,2.07
2023-03-16T12:28:42.238Z,2.00
2023-03-16T12:31:29.143Z,2.00
2023-03-16T12:34:08.445Z,2.00
2023-03-16T12:36:38.066Z,1.90
2023-03-16T12:39:14.004Z,2.07
2023-03-16T12:41:49.582Z,2.07
2023-03-16T12:44:17.178Z,2.07
2023-03-16T12:47:02.405Z,2.10
2023-03-16T12:49:32.170Z,1.90
2023-03-16T12:52:04.057Z,1.80
2023-03-16T12:54:30.616Z,2.17
2023-03-16T12:57:01.639Z,2.47
2023-03-16T12:59:36.578Z,2.10
2023-03-16T13:02:06.864Z,2.27
2023-03-16T13:04:35.057Z,2.30
2023-03-16T13:07:05.160Z,2.17
2023-03-16T13:09:35.393Z,2.03
2023-03-16T13:12:05.320Z,2.60
2023-03-16T13:14:42.968Z,2.40
2023-03-16T13:17:15.746Z,2.20
2023-03-16T13:19:45.273Z,2.50
2023-03-16T13:22:20.998Z,2.60
2023-03-16T13:25:10.713Z,2.33
2023-03-16T13:27:38.424Z,2.10
2023-03-16T13:30:19.540Z,2.10
2023-03-16T13:32:48.006Z,2.20
2023-03-16T13:35:16.146Z,2.30
2023-03-16T13:37:43.913Z,2.13
2023-03-16T13:40:21.163Z,2.27
2023-03-16T13:42:51.821Z,2.70
2023-03-16T13:45:28.216Z,2.80
2023-03-16T13:47:55.489Z,3.00
2023-03-16T13:50:22.118Z,2.53
2023-03-16T13:53:00.573Z,2.00
2023-03-16T13:55:32.651Z,2.30
2023-03-16T13:57:59.493Z,1.90
2023-03-16T14:00:27.567Z,2.00
2023-03-16T14:02:55.711Z,2.10
2023-03-16T14:05:22.302Z,1.97
2023-03-16T14:07:50.968Z,1.70
2023-03-16T14:10:17.904Z,1.70
2023-03-16T14:12:51.770Z,2.33
2023-03-16T14:15:18.920Z,2.00
2023-03-16T14:17:45.710Z,1.80
2023-03-16T14:20:19.331Z,2.00
2023-03-16T14:22:46.273Z,1.90
2023-03-16T14:25:28.048Z,1.87
2023-03-16T14:27:59.712Z,1.90
2023-03-16T14:30:28.113Z,1.73
2023-03-16T14:32:58.359Z,1.77
2023-03-16T14:35:30.357Z,1.90
2023-03-16T14:37:57.757Z,1.80
2023-03-16T14:40:29.717Z,2.00
2023-03-16T14:43:00.750Z,1.80
2023-03-16T14:45:30.284Z,1.90
2023-03-16T14:48:02.753Z,2.20
2023-03-16T14:50:29.311Z,1.70
2023-03-16T14:52:56.557Z,1.70
2023-03-16T14:55:24.094Z,1.83
2023-03-16T14:57:54.019Z,1.67
2023-03-16T15:00:21.929Z,1.80
2023-03-16T15:02:58.287Z,1.60
2023-03-16T15:05:30.504Z,1.67
2023-03-16T15:07:57.584Z,1.70
2023-03-16T15:10:27.004Z,2.10
2023-03-16T15:13:04.496Z,1.90
2023-03-16T15:15:31.694Z,1.63
2023-03-16T15:17:58.566Z,1.50
2023-03-16T15:20:30.409Z,1.70
2023-03-16T15:22:58.862Z,1.80
2023-03-16T15:25:38.620Z,2.00
2023-03-16T15:28:16.083Z,1.97
2023-03-16T15:30:43.433Z,1.70
2023-03-16T15:33:10.785Z,2.10
2023-03-16T15:35:37.657Z,2.23
2023-03-16T15:38:07.313Z,1.70
2023-03-16T15:40:35.167Z,1.80
2023-03-16T15:43:02.602Z,2.00
2023-03-16T15:45:29.491Z,1.97
2023-03-16T15:47:56.143Z,1.70
2023-03-16T15:50:24.838Z,1.90
2023-03-16T15:52:57.217Z,1.90
2023-03-16T15:55:25.826Z,2.00
2023-03-16T15:57:56.574Z,2.30
2023-03-16T16:00:37.565Z,2.00
2023-03-16T16:03:05.015Z,1.73
2023-03-16T16:05:32.690Z,1.70
2023-03-16T16:07:59.832Z,2.30
2023-03-16T16:10:27.086Z,2.47
2023-03-16T16:12:54.818Z,1.90
2023-03-16T16:15:26.076Z,1.77
2023-03-16T16:18:18.570Z,1.70
2023-03-16T16:20:41.152Z,1.60
2023-03-16T16:23:10.502Z,1.30
2023-03-16T16:25:39.345Z,1.67
2023-03-16T16:28:17.616Z,1.40
2023-03-16T16:30:44.373Z,1.70
2023-03-16T16:33:40.249Z,1.17
2023-03-16T16:36:11.223Z,1.50
2023-03-16T16:38:37.804Z,1.30
2023-03-16T16:41:07.721Z,1.10
2023-03-16T16:43:42.664Z,1.47
2023-03-16T16:46:17.619Z,1.33
2023-03-16T16:48:46.337Z,1.57
2023-03-16T16:51:24.863Z,1.60
2023-03-16T16:53:52.716Z,1.70
2023-03-16T16:56:22.969Z,1.60
2023-03-16T16:58:49.707Z,1.17
2023-03-16T17:01:20.587Z,1.30
2023-03-16T17:03:50.701Z,1.43
2023-03-16T17:06:18.194Z,1.50
2023-03-16T17:08:45.723Z,1.60
2023-03-16T17:11:15.446Z,1.40
2023-03-16T17:13:42.004Z,1.53
2023-03-16T17:16:16.659Z,1.50
2023-03-16T17:18:44.251Z,1.30
2023-03-16T17:21:15.987Z,1.57
2023-03-16T17:23:43.040Z,1.30
2023-03-16T17:26:21.827Z,1.63
2023-03-16T17:28:50.573Z,1.53
2023-03-16T17:31:20.130Z,1.20
2023-03-16T17:33:46.990Z,1.20
2023-03-16T17:36:17.569Z,1.40
2023-03-16T17:38:44.420Z,1.47
2023-03-16T17:41:17.489Z,1.33
2023-03-16T17:43:44.092Z,1.10
2023-03-16T17:46:11.018Z,1.70
2023-03-16T17:48:38.494Z,1.40
2023-03-16T17:51:05.139Z,1.37
2023-03-16T17:53:31.850Z,1.50
2023-03-16T17:55:58.462Z,1.50
2023-03-16T17:58:27.835Z,1.87
2023-03-16T18:00:55.138Z,2.00
2023-03-16T18:03:23.890Z,1.70
2023-03-16T18:05:50.640Z,1.60
2023-03-16T18:08:26.249Z,1.50
2023-03-16T18:10:54.233Z,1.80
2023-03-16T18:13:22.688Z,1.70
2023-03-16T18:15:50.016Z,1.70
2023-03-16T18:18:18.941Z,1.70
2023-03-16T18:20:46.176Z,1.83
2023-03-16T18:23:14.512Z,1.83
2023-03-16T18:25:42.160Z,1.70
2023-03-16T18:28:09.868Z,1.93
2023-03-16T18:30:37.929Z,1.67
2023-03-16T18:33:06.084Z,2.03
2023-03-16T18:35:33.055Z,1.73
2023-03-16T18:37:59.914Z,1.77
2023-03-16T18:40:26.809Z,1.80
2023-03-16T18:42:55.095Z,1.97
2023-03-16T18:45:21.996Z,2.33
2023-03-16T18:47:53.441Z,2.73
2023-03-16T18:50:25.919Z,2.00
2023-03-16T18:52:54.619Z,1.90
2023-03-16T18:55:23.380Z,2.30
2023-03-16T18:57:52.930Z,2.40
2023-03-16T19:00:21.384Z,2.00
2023-03-16T19:02:53.552Z,2.30
2023-03-16T19:05:22.265Z,2.50
2023-03-16T19:07:50.321Z,2.13
2023-03-16T19:10:28.369Z,2.40
2023-03-16T19:12:55.474Z,2.60
2023-03-16T19:15:23.828Z,1.90
2023-03-16T19:17:51.262Z,2.10
2023-03-16T19:20:19.633Z,2.83
2023-03-16T19:22:49.086Z,2.30
2023-03-16T19:25:20.685Z,2.43
2023-03-16T19:27:47.634Z,2.50
2023-03-16T19:30:23.125Z,2.70
2023-03-16T19:32:50.476Z,2.53
2023-03-16T19:35:17.843Z,2.97
2023-03-16T19:37:44.973Z,2.93
2023-03-16T19:40:12.410Z,2.77
2023-03-16T19:42:40.789Z,2.63
2023-03-16T19:45:07.733Z,2.80
2023-03-16T19:47:34.872Z,2.83
2023-03-16T19:50:01.969Z,2.50
2023-03-16T19:52:31.243Z,2.50
2023-03-16T19:54:58.161Z,2.70
2023-03-16T19:57:25.348Z,3.10
2023-03-16T19:59:56.411Z,3.50
2023-03-16T20:02:26.583Z,2.53
2023-03-16T20:04:54.800Z,2.67
2023-03-16T20:07:21.998Z,2.80
2023-03-16T20:09:48.881Z,2.50
2023-03-16T20:12:18.428Z,2.60
2023-03-16T20:14:45.038Z,2.70
2023-03-16T20:17:13.234Z,2.90
2023-03-16T20:19:40.215Z,2.70
2023-03-16T20:22:12.354Z,2.93
2023-03-16T20:24:39.412Z,2.83
2023-03-16T20:27:09.638Z,2.73
2023-03-16T20:29:36.573Z,2.70
2023-03-16T20:32:05.176Z,2.70
2023-03-16T20:34:32.296Z,3.00
2023-03-16T20:36:59.169Z,3.40
2023-03-16T20:39:25.830Z,3.03
2023-03-16T20:41:52.695Z,3.20
2023-03-16T20:44:30.447Z,2.90
2023-03-16T20:46:57.133Z,3.67
2023-03-16T20:49:25.257Z,3.13
2023-03-16T20:51:52.127Z,3.17
2023-03-16T20:54:18.731Z,3.37
2023-03-16T20:56:45.297Z,3.20
2023-03-16T20:59:20.483Z,3.40
2023-03-16T21:01:48.049Z,3.43
2023-03-16T21:04:19.785Z,3.07
2023-03-16T21:06:48.901Z,3.63
2023-03-16T21:09:15.678Z,2.97
2023-03-16T21:11:44.072Z,3.37
2023-03-16T21:14:15.913Z,3.43
2023-03-16T21:16:42.715Z,3.23
2023-03-16T21:19:12.886Z,3.30
2023-03-16T21:21:39.529Z,3.63
2023-03-16T21:24:06.211Z,3.30
2023-03-16T21:26:34.023Z,3.20
2023-03-16T21:29:02.114Z,3.20
2023-03-16T21:31:28.970Z,3.13
2023-03-16T21:33:56.055Z,3.50
2023-03-16T21:36:26.285Z,3.00
2023-03-16T21:38:53.482Z,3.27
2023-03-16T21:41:20.055Z,3.50
2023-03-16T21:43:47.203Z,3.23
2023-03-16T21:46:16.197Z,2.83
2023-03-16T21:48:43.392Z,3.37
2023-03-16T21:51:14.082Z,3.20
2023-03-16T21:53:40.861Z,3.20
2023-03-16T21:56:10.330Z,3.00
2023-03-16T21:58:36.913Z,3.60
2023-03-16T22:01:04.419Z,3.37
2023-03-16T22:03:49.753Z,3.40
2023-03-16T22:06:17.299Z,3.53
2023-03-16T22:08:44.115Z,3.47
2023-03-16T22:11:24.330Z,3.17
2023-03-16T22:13:51.581Z,2.80
2023-03-16T22:16:19.428Z,3.10
2023-03-16T22:18:47.253Z,3.33
2023-03-16T22:21:24.976Z,3.37
2023-03-16T22:23:51.782Z,3.00
2023-03-16T22:26:19.260Z,3.60
2023-03-16T22:28:50.689Z,3.30
2023-03-16T22:31:19.538Z,3.37
2023-03-16T22:33:47.796Z,2.90
2023-03-16T22:36:18.673Z,3.20
2023-03-16T22:38:46.408Z,3.50
2023-03-16T22:41:14.531Z,3.27
2023-03-16T22:43:42.767Z,3.33
2023-03-16T22:46:20.225Z,3.67
2023-03-16T22:48:47.132Z,3.43
2023-03-16T22:51:21.871Z,3.03
2023-03-16T22:53:49.909Z,3.20
2023-03-16T22:56:16.567Z,3.13
2023-03-16T22:58:49.319Z,3.30
2023-03-16T23:01:20.230Z,2.67
2023-03-16T23:03:48.070Z,3.10
2023-03-16T23:06:17.207Z,3.00
2023-03-16T23:08:43.740Z,3.67
2023-03-16T23:11:20.948Z,3.43
2023-03-16T23:13:47.787Z,3.00
2023-03-16T23:16:24.964Z,2.90
2023-03-16T23:18:52.418Z,2.87
2023-03-16T23:21:20.760Z,3.00
2023-03-16T23:23:57.157Z,3.23
2023-03-16T23:26:29.135Z,3.30
2023-03-16T23:28:56.444Z,3.43
2023-03-16T23:31:24.366Z,2.70
2023-03-16T23:33:51.319Z,2.73
2023-03-16T23:36:19.050Z,3.33
2023-03-16T23:38:46.373Z,3.20
2023-03-16T23:41:13.830Z,3.13
2023-03-16T23:43:41.785Z,3.33
2023-03-16T23:46:12.572Z,3.30
2023-03-16T23:48:40.862Z,2.97
2023-03-16T23:51:07.788Z,2.93
2023-03-16T23:53:34.410Z,3.33
2023-03-16T23:56:01.825Z,3.13
2023-03-16T23:58:28.405Z,2.87
